Flight Track Log - Related Links

Times and Time Zones

All times are in EDT time to prevent confusion due to time zone crossing. See the N682RW flight status page for this flight to view local times or setup timezone preferences in your user account.

Time Position Orientation Groundspeed Altitude Reporting Facility
EDT Latitude Longitude Course Direction KTS MPH feet Rate Location/Type
Mon 07:01:49 PM 42.2072 -83.3531 188° South 169 194 1,300  Level Cleveland Center
Mon 07:02:20 PM 42.1817 -83.3581 188° South 206 237 2,700 2,157 Climbing Cleveland Center
Mon 07:03:18 PM 42.1258 -83.3611 182° South 240 276 4,500 2,600 Climbing Cleveland Center
Mon 07:04:20 PM 42.0400 -83.3614 180° South 281 323 7,900 3,097 Climbing Cleveland Center
Mon 07:05:22 PM 41.9547 -83.3558 177° South 298 343 10,900 2,439 Climbing Cleveland Center
Mon 07:06:23 PM 41.8456 -83.3528 179° South 351 404 12,900 2,146 Climbing Cleveland Center
Mon 07:07:25 PM 41.7347 -83.3444 177° South 392 451 15,300 2,661 Climbing Cleveland Center
Mon 07:08:27 PM 41.6197 -83.3344 176° South 410 472 18,400 1,790 Climbing Cleveland Center
Mon 07:09:29 PM 41.5014 -83.3250 177° South 419 482 19,000 290 Climbing Cleveland Center
Mon 07:10:31 PM 41.3831 -83.3150 176° South 424 488 19,000 -49 Level Cleveland Center
Mon 07:11:32 PM 41.2647 -83.3061 177° South 424 488 18,900 -732 Descending Cleveland Center
Mon 07:12:34 PM 41.1469 -83.2961 176° South 424 488 17,500 -1,452 Descending Cleveland Center
Mon 07:13:36 PM 41.0089 -83.2853 177° South 421 484 15,900 -1,210 Descending Cleveland Center
Mon 07:14:38 PM 40.8953 -83.2750 176° South 416 479 15,000 -1,664 Descending Cleveland Center
Mon 07:15:53 PM 40.7622 -83.2642 176° South 402 463 12,100 -2,206 Descending Indianapolis Center
Mon 07:16:54 PM 40.6542 -83.2561 177° South 396 456 10,000 -1,024 Descending Indianapolis Center
Mon 07:17:56 PM 40.5508 -83.2456 176° South 378 435 10,000  Level Indianapolis Center
Mon 07:18:32 PM 40.4825 -83.1825 145° Southeast 395 455 10,000  Level Indianapolis Center
Mon 07:18:58 PM 40.4633 -83.1619 141° Southeast 385 443 10,000  Level Indianapolis Center
Mon 07:19:33 PM 40.3961 -83.0969 144° Southeast 389 448 10,000  Level Indianapolis Center
Mon 07:20:00 PM 40.3581 -83.0597 143° Southeast 386 444 10,000  Level Indianapolis Center
Mon 07:20:34 PM 40.3100 -83.0089 141° Southeast 397 457 10,000  Level Indianapolis Center
Mon 07:21:02 PM 40.2733 -82.9744 144° Southeast 386 444 10,000 -400 Level Indianapolis Center
Mon 07:21:34 PM 40.2311 -82.9331 143° Southeast 353 406 9,600 -968 Descending Indianapolis Center
Mon 07:22:04 PM 40.1992 -82.8961 139° Southeast 359 413 9,000 -1,343 Descending Indianapolis Center
Mon 07:22:41 PM 40.1617 -82.8425 132° Southeast 317 365 8,100 -1,452 Descending Indianapolis Center
Mon 07:23:06 PM 40.1417 -82.8092 128° Southeast 324 373 7,500 -2,000 Descending Indianapolis Center
Mon 07:24:08 PM 40.0875 -82.7281 131° Southeast 304 350 5,200 -2,188 Descending Indianapolis Center
Mon 07:24:42 PM 40.0550 -82.6806 132° Southeast 274 315 4,000 -1,548 Descending Indianapolis Center
Mon 07:25:10 PM 40.0342 -82.6644 149° Southeast 281 323 3,600 -806 Descending Indianapolis Center
Mon 07:25:49 PM 39.9967 -82.6769 194° South 164 189 3,100 -581 Descending Indianapolis Center
Mon 07:26:12 PM 39.9900 -82.6833 216° Southwest 214 246 3,000 -109 Descending Indianapolis Center
Mon 07:26:44 PM 39.9842 -82.7214 259° West 143 165 3,000 -194 Level Indianapolis Center
Mon 07:27:14 PM 39.9833 -82.7433 267° West 163 188 2,800 -590 Descending Indianapolis Center
Mon 07:27:45 PM 39.9858 -82.7708 277° West 132 152 2,400 -677 Descending Indianapolis Center
Mon 07:28:16 PM 39.9861 -82.7919 271° West 147 169 2,100 -700 Descending Indianapolis Center
Mon 07:28:45 PM 39.9881 -82.8147 276° West 129 148 1,700 -677 Descending Indianapolis Center
Mon 07:29:18 PM 39.9894 -82.8372 275° West 135 155 1,400 -655 Descending Indianapolis Center
Mon 07:29:40 PM 39.9900 -82.8589 272° West 134 154 1,100 -290 Descending Indianapolis Center
Mon 07:30:20 PM 39.9917 -82.8822 275° West 134 154 1,100  Level Indianapolis Center

Login

Don't have an account? Register now (free) for customized features, flight alerts, and more!